createdAt,value
2022-09-15T00:00:45.204Z,976.15
2022-09-15T00:01:45.240Z,976.14
2022-09-15T00:02:45.195Z,976.08
2022-09-15T00:03:45.133Z,976.11
2022-09-15T00:04:45.134Z,976.09
2022-09-15T00:05:45.114Z,976.13
2022-09-15T00:06:45.133Z,976.05
2022-09-15T00:07:45.103Z,976.02
2022-09-15T00:08:45.085Z,976.03
2022-09-15T00:09:45.074Z,976.08
2022-09-15T00:10:45.069Z,976.06
2022-09-15T00:11:45.054Z,976.06
2022-09-15T00:12:45.078Z,976.10
2022-09-15T00:13:45.150Z,976.08
2022-09-15T00:14:45.025Z,976.04
2022-09-15T00:15:45.014Z,976.09
2022-09-15T00:16:45.109Z,976.10
2022-09-15T00:17:44.995Z,976.00
2022-09-15T00:18:45.029Z,976.06
2022-09-15T00:19:44.966Z,976.08
2022-09-15T00:20:44.959Z,976.07
2022-09-15T00:21:44.948Z,976.07
2022-09-15T00:22:44.948Z,976.05
2022-09-15T00:23:44.926Z,976.06
2022-09-15T00:24:44.955Z,975.99
2022-09-15T00:25:44.905Z,975.99
2022-09-15T00:26:44.898Z,975.99
2022-09-15T00:27:44.898Z,976.00
2022-09-15T00:28:44.906Z,975.98
2022-09-15T00:29:44.869Z,975.96
2022-09-15T00:30:44.961Z,976.02
2022-09-15T00:31:44.848Z,975.99
2022-09-15T00:32:44.837Z,976.02
2022-09-15T00:33:44.819Z,975.93
2022-09-15T00:34:44.819Z,975.99
2022-09-15T00:35:44.808Z,975.97
2022-09-15T00:36:44.829Z,975.96
2022-09-15T00:37:44.800Z,975.98
2022-09-15T00:38:44.777Z,975.97
2022-09-15T00:39:44.820Z,976.02
2022-09-15T00:40:44.761Z,976.01
2022-09-15T00:41:44.752Z,975.93
2022-09-15T00:42:44.758Z,975.94
2022-09-15T00:43:44.764Z,975.94
2022-09-15T00:44:44.723Z,975.92
2022-09-15T00:45:44.735Z,975.97
2022-09-15T00:46:54.680Z,975.92
2022-09-15T00:47:45.726Z,975.91
2022-09-15T00:48:44.681Z,975.90
2022-09-15T00:49:44.663Z,975.93
2022-09-15T00:50:44.673Z,976.02
2022-09-15T00:51:44.642Z,975.92
2022-09-15T00:52:44.635Z,975.90
2022-09-15T00:53:44.643Z,975.93
2022-09-15T00:54:44.609Z,975.98
2022-09-15T00:55:44.593Z,975.96
2022-09-15T00:56:44.593Z,975.92
2022-09-15T00:57:44.585Z,975.96
2022-09-15T00:58:44.575Z,975.95
2022-09-15T00:59:44.586Z,975.95
2022-09-15T01:00:44.592Z,975.92
2022-09-15T01:01:44.693Z,975.92
2022-09-15T01:02:44.639Z,975.91
2022-09-15T01:03:44.513Z,975.92
2022-09-15T01:04:44.503Z,975.93
2022-09-15T01:05:44.516Z,975.96
2022-09-15T01:06:44.491Z,975.96
2022-09-15T01:07:44.485Z,975.99
2022-09-15T01:08:44.498Z,976.01
2022-09-15T01:09:44.456Z,975.96
2022-09-15T01:10:44.445Z,975.97
2022-09-15T01:11:44.470Z,975.96
2022-09-15T01:12:44.434Z,975.97
2022-09-15T01:13:44.417Z,975.97
2022-09-15T01:14:44.408Z,975.96
2022-09-15T01:15:44.398Z,975.95
2022-09-15T01:16:44.446Z,975.94
2022-09-15T01:17:44.414Z,975.92
2022-09-15T01:18:44.366Z,975.90
2022-09-15T01:19:44.357Z,975.88
2022-09-15T01:20:44.348Z,975.99
2022-09-15T01:21:44.328Z,975.99
2022-09-15T01:22:44.325Z,975.97
2022-09-15T01:23:44.346Z,976.02
2022-09-15T01:24:44.305Z,975.94
2022-09-15T01:25:44.296Z,975.96
2022-09-15T01:26:44.287Z,976.01
2022-09-15T01:27:44.286Z,975.99
2022-09-15T01:28:44.268Z,975.95
2022-09-15T01:29:44.289Z,975.94
2022-09-15T01:30:44.247Z,975.97
2022-09-15T01:31:44.298Z,975.94
2022-09-15T01:32:44.219Z,975.96
2022-09-15T01:33:44.208Z,975.93
2022-09-15T01:34:44.211Z,975.91
2022-09-15T01:35:44.220Z,975.88
2022-09-15T01:36:44.181Z,975.89
2022-09-15T01:37:44.170Z,975.88
2022-09-15T01:38:44.188Z,975.86
2022-09-15T01:39:44.314Z,975.87
2022-09-15T01:40:44.142Z,975.85
2022-09-15T01:41:44.150Z,975.81
2022-09-15T01:42:44.120Z,975.82
2022-09-15T01:43:44.113Z,975.85
2022-09-15T01:44:44.101Z,975.81
2022-09-15T01:45:44.135Z,975.78
2022-09-15T01:46:44.078Z,975.82
2022-09-15T01:47:44.103Z,975.76
2022-09-15T01:48:44.071Z,975.74
2022-09-15T01:49:44.042Z,975.71
2022-09-15T01:50:44.034Z,975.74
2022-09-15T01:51:44.023Z,975.71
2022-09-15T01:52:44.013Z,975.68
2022-09-15T01:53:44.023Z,975.65
2022-09-15T01:54:44.001Z,975.65
2022-09-15T01:55:43.983Z,975.67
2022-09-15T01:56:43.985Z,975.70
2022-09-15T01:57:43.970Z,975.62
2022-09-15T01:58:43.954Z,975.65
2022-09-15T01:59:43.965Z,975.63
2022-09-15T02:00:43.967Z,975.65
2022-09-15T02:01:44.046Z,975.62
2022-09-15T02:02:43.915Z,975.65
2022-09-15T02:03:43.902Z,975.64
2022-09-15T02:04:43.891Z,975.65
2022-09-15T02:05:43.905Z,975.66
2022-09-15T02:06:43.873Z,975.65
2022-09-15T02:07:43.865Z,975.64
2022-09-15T02:08:43.860Z,975.66
2022-09-15T02:09:43.835Z,975.66
2022-09-15T02:10:43.825Z,975.66
2022-09-15T02:11:43.835Z,975.66
2022-09-15T02:12:43.837Z,975.70
2022-09-15T02:13:43.796Z,975.66
2022-09-15T02:14:43.796Z,975.65
2022-09-15T02:15:43.778Z,975.62
2022-09-15T02:16:43.812Z,975.58
2022-09-15T02:17:43.786Z,975.60
2022-09-15T02:18:43.737Z,975.62
2022-09-15T02:19:43.737Z,975.59
2022-09-15T02:20:43.717Z,975.59
2022-09-15T02:21:43.716Z,975.57
2022-09-15T02:22:43.737Z,975.58
2022-09-15T02:23:43.776Z,975.53
2022-09-15T02:24:43.686Z,975.53
2022-09-15T02:25:43.675Z,975.55
2022-09-15T02:26:43.659Z,975.51
2022-09-15T02:27:43.661Z,975.54
2022-09-15T02:28:43.639Z,975.53
2022-09-15T02:29:43.658Z,975.52
2022-09-15T02:30:43.626Z,975.55
2022-09-15T02:31:43.663Z,975.51
2022-09-15T02:32:43.658Z,975.51
2022-09-15T02:33:43.590Z,975.46
2022-09-15T02:34:43.576Z,975.46
2022-09-15T02:35:43.610Z,975.48
2022-09-15T02:36:43.553Z,975.47
2022-09-15T02:37:43.557Z,975.47
2022-09-15T02:38:43.538Z,975.41
2022-09-15T02:39:43.542Z,975.45
2022-09-15T02:40:43.512Z,975.46
2022-09-15T02:41:43.530Z,975.41
2022-09-15T02:42:43.502Z,975.43
2022-09-15T02:43:43.490Z,975.43
2022-09-15T02:44:43.471Z,975.43
2022-09-15T02:45:43.562Z,975.45
2022-09-15T02:46:43.452Z,975.42
2022-09-15T02:47:43.481Z,975.41
2022-09-15T02:48:43.432Z,975.42
2022-09-15T02:49:43.422Z,975.40
2022-09-15T02:50:43.403Z,975.35
2022-09-15T02:51:43.412Z,975.39
2022-09-15T02:52:43.392Z,975.34
2022-09-15T02:53:43.415Z,975.34
2022-09-15T02:54:43.374Z,975.31
2022-09-15T02:55:43.355Z,975.34
2022-09-15T02:56:43.343Z,975.31
2022-09-15T02:57:43.356Z,975.32
2022-09-15T02:58:43.326Z,975.30
2022-09-15T02:59:43.343Z,975.35
2022-09-15T03:00:43.350Z,975.34
2022-09-15T03:01:43.335Z,975.32
2022-09-15T03:02:43.283Z,975.32
2022-09-15T03:03:43.275Z,975.31
2022-09-15T03:04:43.264Z,975.32
2022-09-15T03:05:43.294Z,975.30
2022-09-15T03:06:43.246Z,975.31
2022-09-15T03:07:43.245Z,975.29
2022-09-15T03:08:43.225Z,975.28
2022-09-15T03:09:43.222Z,975.30
2022-09-15T03:10:43.210Z,975.29
2022-09-15T03:11:43.225Z,975.24
2022-09-15T03:12:43.176Z,975.27
2022-09-15T03:13:43.175Z,975.27
2022-09-15T03:14:43.157Z,975.25
2022-09-15T03:15:43.154Z,975.30
2022-09-15T03:16:43.169Z,975.28
2022-09-15T03:17:43.156Z,975.26
2022-09-15T03:18:43.116Z,975.29
2022-09-15T03:19:43.126Z,975.28
2022-09-15T03:20:43.098Z,975.27
2022-09-15T03:21:43.088Z,975.28
2022-09-15T03:22:43.079Z,975.31
2022-09-15T03:23:43.096Z,975.30
2022-09-15T03:24:43.057Z,975.32
2022-09-15T03:25:43.049Z,975.26
2022-09-15T03:26:43.038Z,975.26
2022-09-15T03:27:43.037Z,975.32
2022-09-15T03:28:43.015Z,975.32
2022-09-15T03:29:43.028Z,975.34
2022-09-15T03:30:42.996Z,975.33
2022-09-15T03:31:43.062Z,975.34
2022-09-15T03:32:42.970Z,975.34
2022-09-15T03:33:42.969Z,975.32
2022-09-15T03:34:42.958Z,975.34
2022-09-15T03:35:42.979Z,975.35
2022-09-15T03:36:42.930Z,975.33
2022-09-15T03:37:42.940Z,975.36
2022-09-15T03:38:42.909Z,975.34
2022-09-15T03:39:42.910Z,975.33
2022-09-15T03:40:42.892Z,975.32
2022-09-15T03:41:42.919Z,975.29
2022-09-15T03:42:42.870Z,975.26
2022-09-15T03:43:42.868Z,975.29
2022-09-15T03:44:42.852Z,975.30
2022-09-15T03:45:42.904Z,975.29
2022-09-15T03:46:42.822Z,975.30
2022-09-15T03:47:42.867Z,975.28
2022-09-15T03:48:42.811Z,975.29
2022-09-15T03:49:42.801Z,975.25
2022-09-15T03:50:42.791Z,975.27
2022-09-15T03:51:42.781Z,975.23
2022-09-15T03:52:42.762Z,975.30
2022-09-15T03:53:42.842Z,975.28
2022-09-15T03:54:42.739Z,975.26
2022-09-15T03:55:42.733Z,975.24
2022-09-15T03:56:42.722Z,975.27
2022-09-15T03:57:42.723Z,975.29
2022-09-15T03:58:42.703Z,975.28
2022-09-15T03:59:42.723Z,975.27
2022-09-15T04:00:42.720Z,975.22
2022-09-15T04:01:42.696Z,975.22
2022-09-15T04:02:42.665Z,975.26
2022-09-15T04:03:47.562Z,975.27
2022-09-15T04:04:43.660Z,975.28
2022-09-15T04:05:42.640Z,975.24
2022-09-15T04:06:42.615Z,975.19
2022-09-15T04:07:42.624Z,975.22
2022-09-15T04:08:42.606Z,975.17
2022-09-15T04:09:42.588Z,975.20
2022-09-15T04:10:42.563Z,975.19
2022-09-15T04:11:42.522Z,975.23
2022-09-15T04:12:42.506Z,975.19
2022-09-15T04:13:42.498Z,975.20
2022-09-15T04:14:42.484Z,975.19
2022-09-15T04:15:42.490Z,975.21
2022-09-15T04:16:42.604Z,975.19
2022-09-15T04:17:42.467Z,975.19
2022-09-15T04:18:42.445Z,975.21
2022-09-15T04:19:42.436Z,975.14
2022-09-15T04:20:42.416Z,975.15
2022-09-15T04:21:42.416Z,975.11
2022-09-15T04:22:42.428Z,975.17
2022-09-15T04:23:42.524Z,975.16
2022-09-15T04:24:42.378Z,975.12
2022-09-15T04:25:42.375Z,975.12
2022-09-15T04:26:42.357Z,975.10
2022-09-15T04:27:42.357Z,975.15
2022-09-15T04:28:42.376Z,975.15
2022-09-15T04:29:42.336Z,975.15
2022-09-15T04:30:42.320Z,975.13
2022-09-15T04:31:42.411Z,975.09
2022-09-15T04:32:42.304Z,975.13
2022-09-15T04:33:42.288Z,975.10
2022-09-15T04:34:42.309Z,975.10
2022-09-15T04:35:42.268Z,975.10
2022-09-15T04:36:42.260Z,975.09
2022-09-15T04:37:42.247Z,975.11
2022-09-15T04:38:42.265Z,975.09
2022-09-15T04:39:42.229Z,975.08
2022-09-15T04:40:42.251Z,975.10
2022-09-15T04:41:42.208Z,975.08
2022-09-15T04:42:42.191Z,975.06
2022-09-15T04:43:42.189Z,975.08
2022-09-15T04:44:42.181Z,975.05
2022-09-15T04:45:42.168Z,975.11
2022-09-15T04:46:42.283Z,975.06
2022-09-15T04:47:42.152Z,975.06
2022-09-15T04:48:42.130Z,975.01
2022-09-15T04:49:42.130Z,975.02
2022-09-15T04:50:42.112Z,974.99
2022-09-15T04:51:42.102Z,974.97
2022-09-15T04:52:42.122Z,974.97
2022-09-15T04:53:42.178Z,974.94
2022-09-15T04:54:42.072Z,974.97
2022-09-15T04:55:42.062Z,974.97
2022-09-15T04:56:42.052Z,975.02
2022-09-15T04:57:42.050Z,974.99
2022-09-15T04:58:42.049Z,974.99
2022-09-15T04:59:42.021Z,975.02
2022-09-15T05:00:42.032Z,974.91
2022-09-15T05:01:42.070Z,974.96
2022-09-15T05:02:41.984Z,974.94
2022-09-15T05:03:41.986Z,974.95
2022-09-15T05:04:41.995Z,974.98
2022-09-15T05:05:41.954Z,974.91
2022-09-15T05:06:41.955Z,974.94
2022-09-15T05:07:41.941Z,974.90
2022-09-15T05:08:41.953Z,974.93
2022-09-15T05:09:41.913Z,974.91
2022-09-15T05:10:41.935Z,974.92
2022-09-15T05:11:41.905Z,974.89
2022-09-15T05:12:41.886Z,974.91
2022-09-15T05:13:41.885Z,974.93
2022-09-15T05:14:41.867Z,974.96
2022-09-15T05:15:41.864Z,974.90
2022-09-15T05:16:41.891Z,974.92
2022-09-15T05:17:41.834Z,974.86
2022-09-15T05:18:41.822Z,974.90
2022-09-15T05:19:41.816Z,974.89
2022-09-15T05:20:41.808Z,974.93
2022-09-15T05:21:41.793Z,974.93
2022-09-15T05:22:42.114Z,974.93
2022-09-15T05:23:41.867Z,974.94
2022-09-15T05:24:41.766Z,974.95
2022-09-15T05:25:41.747Z,974.92
2022-09-15T05:26:41.750Z,974.95
2022-09-15T05:27:41.738Z,974.95
2022-09-15T05:28:41.747Z,974.97
2022-09-15T05:29:41.708Z,974.95
2022-09-15T05:30:44.407Z,974.93
2022-09-15T05:31:41.751Z,974.93
2022-09-15T05:32:41.678Z,974.98
2022-09-15T05:33:41.669Z,974.98
2022-09-15T05:34:41.689Z,974.95
2022-09-15T05:35:41.655Z,974.95
2022-09-15T05:36:41.640Z,974.93
2022-09-15T05:37:41.631Z,974.90
2022-09-15T05:38:41.704Z,974.95
2022-09-15T05:39:41.610Z,974.99
2022-09-15T05:40:41.627Z,974.93
2022-09-15T05:41:41.589Z,974.89
2022-09-15T05:42:41.569Z,974.94
2022-09-15T05:43:41.571Z,974.97
2022-09-15T05:44:41.561Z,974.91
2022-09-15T05:45:41.562Z,974.92
2022-09-15T05:46:41.629Z,974.94
2022-09-15T05:47:41.531Z,974.88
2022-09-15T05:48:41.511Z,974.89
2022-09-15T05:49:41.499Z,974.98
2022-09-15T05:50:41.489Z,974.90
2022-09-15T05:51:41.478Z,974.87
2022-09-15T05:52:41.499Z,974.81
2022-09-15T05:53:41.545Z,974.83
2022-09-15T05:54:41.451Z,974.89
2022-09-15T05:55:41.449Z,974.88
2022-09-15T05:56:41.430Z,974.86
2022-09-15T05:57:41.423Z,974.81
2022-09-15T05:58:41.445Z,974.79
2022-09-15T05:59:41.404Z,974.79
2022-09-15T06:00:41.383Z,974.82
2022-09-15T06:01:41.393Z,974.78
2022-09-15T06:02:41.421Z,974.80
2022-09-15T06:03:41.361Z,974.82
2022-09-15T06:04:41.383Z,974.81
2022-09-15T06:05:41.343Z,974.82
2022-09-15T06:06:41.326Z,974.86
2022-09-15T06:07:41.317Z,974.81
2022-09-15T06:08:44.059Z,974.78
2022-09-15T06:09:41.303Z,974.81
2022-09-15T06:10:41.323Z,974.82
2022-09-15T06:11:41.285Z,974.84
2022-09-15T06:12:41.265Z,974.83
2022-09-15T06:13:41.255Z,974.83
2022-09-15T06:14:41.246Z,974.89
2022-09-15T06:15:41.369Z,974.85
2022-09-15T06:16:41.321Z,974.87
2022-09-15T06:17:41.215Z,974.89
2022-09-15T06:18:41.254Z,974.85
2022-09-15T06:19:41.204Z,974.88
2022-09-15T06:20:41.183Z,974.85
2022-09-15T06:21:41.177Z,974.84
2022-09-15T06:22:41.196Z,974.84
2022-09-15T06:23:41.265Z,974.84
2022-09-15T06:24:41.147Z,974.80
2022-09-15T06:25:41.137Z,974.81
2022-09-15T06:26:41.126Z,974.83
2022-09-15T06:27:41.118Z,974.82
2022-09-15T06:28:41.129Z,974.83
2022-09-15T06:29:41.098Z,974.80
2022-09-15T06:30:41.079Z,974.84
2022-09-15T06:31:41.099Z,974.87
2022-09-15T06:32:43.290Z,974.83
2022-09-15T06:33:42.084Z,974.84
2022-09-15T06:34:41.040Z,974.84
2022-09-15T06:35:41.029Z,974.87
2022-09-15T06:36:41.029Z,974.85
2022-09-15T06:37:41.014Z,974.86
2022-09-15T06:38:40.997Z,974.85
2022-09-15T06:39:41.024Z,974.88
2022-09-15T06:40:40.984Z,974.92
2022-09-15T06:42:01.327Z,974.87
2022-09-15T06:42:41.960Z,974.89
2022-09-15T06:43:40.949Z,974.85
2022-09-15T06:44:40.939Z,974.92
2022-09-15T06:45:40.984Z,974.83
2022-09-15T06:46:40.912Z,974.86
2022-09-15T06:47:40.913Z,974.84
2022-09-15T06:48:40.901Z,974.79
2022-09-15T06:49:40.885Z,974.81
2022-09-15T06:50:40.881Z,974.79
2022-09-15T06:51:40.894Z,974.80
2022-09-15T06:52:40.855Z,974.80
2022-09-15T06:53:40.844Z,974.77
2022-09-15T06:54:40.845Z,974.82
2022-09-15T06:55:40.831Z,974.81
2022-09-15T06:56:40.823Z,974.82
2022-09-15T06:57:40.831Z,974.76
2022-09-15T06:58:40.814Z,974.76
2022-09-15T06:59:40.774Z,974.79
2022-09-15T07:00:40.772Z,974.75
2022-09-15T07:01:40.761Z,974.75
2022-09-15T07:02:40.877Z,974.80
2022-09-15T07:03:40.839Z,974.76
2022-09-15T07:04:40.736Z,974.80
2022-09-15T07:05:40.713Z,974.77
2022-09-15T07:06:40.718Z,974.81
2022-09-15T07:07:40.696Z,974.75
2022-09-15T07:08:40.687Z,974.77
2022-09-15T07:09:41.458Z,974.77
2022-09-15T07:10:40.668Z,974.80
2022-09-15T07:11:40.657Z,974.75
2022-09-15T07:12:40.648Z,974.80
2022-09-15T07:13:40.636Z,974.74
2022-09-15T07:14:40.660Z,974.72
2022-09-15T07:15:40.638Z,974.76
2022-09-15T07:16:40.697Z,974.74
2022-09-15T07:17:40.595Z,974.75
2022-09-15T07:18:43.200Z,974.74
2022-09-15T07:19:40.569Z,974.72
2022-09-15T07:20:40.568Z,974.69
2022-09-15T07:21:40.578Z,974.68
2022-09-15T07:22:40.547Z,974.69
2022-09-15T07:23:40.528Z,974.73
2022-09-15T07:24:40.526Z,974.65
2022-09-15T07:25:40.510Z,974.65
2022-09-15T07:26:40.500Z,974.67
2022-09-15T07:27:40.513Z,974.68
2022-09-15T07:28:40.481Z,974.67
2022-09-15T07:29:40.475Z,974.69
2022-09-15T07:30:40.461Z,974.67
2022-09-15T07:31:40.488Z,974.66
2022-09-15T07:32:40.431Z,974.65
2022-09-15T07:33:40.454Z,974.67
2022-09-15T07:34:40.430Z,974.65
2022-09-15T07:35:40.403Z,974.71
2022-09-15T07:36:40.404Z,974.70
2022-09-15T07:37:40.383Z,974.75
2022-09-15T07:38:40.381Z,974.72
2022-09-15T07:39:40.391Z,974.72
2022-09-15T07:40:40.353Z,974.72
2022-09-15T07:41:40.342Z,974.71
2022-09-15T07:42:40.333Z,974.69
2022-09-15T07:43:40.323Z,974.74
2022-09-15T07:44:40.317Z,974.68
2022-09-15T07:45:40.408Z,974.69
2022-09-15T07:46:40.295Z,974.74
2022-09-15T07:47:40.276Z,974.71
2022-09-15T07:48:40.283Z,974.75
2022-09-15T07:49:40.255Z,974.75
2022-09-15T07:50:40.253Z,974.67
2022-09-15T07:51:40.286Z,974.67
2022-09-15T07:52:40.239Z,974.71
2022-09-15T07:53:40.216Z,974.73
2022-09-15T07:54:40.220Z,974.72
2022-09-15T07:55:40.198Z,974.71
2022-09-15T07:56:40.193Z,974.76
2022-09-15T07:57:40.198Z,974.72
2022-09-15T07:58:40.168Z,974.76
2022-09-15T07:59:41.348Z,974.80
2022-09-15T08:00:40.178Z,974.74
2022-09-15T08:01:40.210Z,974.74
2022-09-15T08:02:40.130Z,974.75
2022-09-15T08:03:40.139Z,974.74
2022-09-15T08:04:40.099Z,974.76
2022-09-15T08:05:44.776Z,974.74
2022-09-15T08:06:41.089Z,974.75
2022-09-15T08:07:40.071Z,974.77
2022-09-15T08:08:40.062Z,974.82
2022-09-15T08:09:40.080Z,974.77
2022-09-15T08:10:40.047Z,974.79
2022-09-15T08:11:40.031Z,974.86
2022-09-15T08:12:40.023Z,974.80
2022-09-15T08:13:40.011Z,974.81
2022-09-15T08:14:40.011Z,974.85
2022-09-15T08:15:40.022Z,974.85
2022-09-15T08:16:40.051Z,974.84
2022-09-15T08:17:39.974Z,974.83
2022-09-15T08:18:39.962Z,974.85
2022-09-15T08:19:39.951Z,974.83
2022-09-15T08:20:39.946Z,974.84
2022-09-15T08:21:39.945Z,974.81
2022-09-15T08:22:39.915Z,974.82
2022-09-15T08:23:39.904Z,974.81
2022-09-15T08:24:39.903Z,974.81
2022-09-15T08:25:39.886Z,974.77
2022-09-15T08:26:39.887Z,974.71
2022-09-15T08:27:39.885Z,974.75
2022-09-15T08:28:39.866Z,974.81
2022-09-15T08:29:39.849Z,974.80
2022-09-15T08:30:39.835Z,974.80
2022-09-15T08:31:39.900Z,974.81
2022-09-15T08:32:39.814Z,974.84
2022-09-15T08:33:44.640Z,974.79
2022-09-15T08:34:40.800Z,974.81
2022-09-15T08:35:39.775Z,974.82
2022-09-15T08:36:39.772Z,974.79
2022-09-15T08:37:39.759Z,974.78
2022-09-15T08:38:39.758Z,974.82
2022-09-15T08:39:39.758Z,974.82
2022-09-15T08:40:39.720Z,974.79
2022-09-15T08:41:39.707Z,974.83
2022-09-15T08:42:42.927Z,974.82
2022-09-15T08:43:40.815Z,974.85
2022-09-15T08:44:39.693Z,974.83
2022-09-15T08:45:39.746Z,974.85
2022-09-15T08:46:39.722Z,974.86
2022-09-15T08:47:39.662Z,974.82
2022-09-15T08:48:39.646Z,974.85
2022-09-15T08:49:51.518Z,974.83
2022-09-15T08:50:40.649Z,974.78
2022-09-15T08:51:39.603Z,974.77
2022-09-15T08:52:39.599Z,974.72
2022-09-15T08:53:39.592Z,974.78
2022-09-15T08:54:39.583Z,974.78
2022-09-15T08:55:39.565Z,974.77
2022-09-15T08:56:39.595Z,974.77
2022-09-15T08:57:39.551Z,974.78
2022-09-15T08:58:39.540Z,974.80
2022-09-15T08:59:39.521Z,974.77
2022-09-15T09:00:39.513Z,974.78
2022-09-15T09:01:39.541Z,974.77
2022-09-15T09:02:39.562Z,974.77
2022-09-15T09:03:39.486Z,974.74
2022-09-15T09:04:39.473Z,974.74
2022-09-15T09:05:39.458Z,974.80
2022-09-15T09:06:39.455Z,974.77
2022-09-15T09:07:39.436Z,974.76
2022-09-15T09:08:39.453Z,974.78
2022-09-15T09:09:39.416Z,974.79
2022-09-15T09:10:39.407Z,974.81
2022-09-15T09:11:39.407Z,974.84
2022-09-15T09:12:39.388Z,974.81
2022-09-15T09:13:39.397Z,974.84
2022-09-15T09:14:39.400Z,974.78
2022-09-15T09:15:39.413Z,974.76
2022-09-15T09:16:39.346Z,974.72
2022-09-15T09:17:39.329Z,974.76
2022-09-15T09:18:39.334Z,974.79
2022-09-15T09:19:39.310Z,974.72
2022-09-15T09:20:39.331Z,974.77
2022-09-15T09:21:39.290Z,974.80
2022-09-15T09:22:39.288Z,974.82
2022-09-15T09:23:39.270Z,974.79
2022-09-15T09:24:39.261Z,974.84
2022-09-15T09:25:39.252Z,974.84
2022-09-15T09:26:39.270Z,974.83
2022-09-15T09:27:39.234Z,974.84
2022-09-15T09:28:39.252Z,974.84
2022-09-15T09:29:39.216Z,974.80
2022-09-15T09:30:39.287Z,974.85
2022-09-15T09:31:39.182Z,974.85
2022-09-15T09:32:39.204Z,974.83
2022-09-15T09:33:41.777Z,974.84
2022-09-15T09:34:39.162Z,974.79
2022-09-15T09:35:39.154Z,974.82
2022-09-15T09:36:39.146Z,974.86
2022-09-15T09:37:39.128Z,974.85
2022-09-15T09:38:39.157Z,974.81
2022-09-15T09:39:39.113Z,974.78
2022-09-15T09:40:39.193Z,974.82
2022-09-15T09:41:39.076Z,974.86
2022-09-15T09:42:39.077Z,974.86
2022-09-15T09:43:39.073Z,974.84
2022-09-15T09:44:39.088Z,974.83
2022-09-15T09:45:39.038Z,974.84
2022-09-15T09:46:39.093Z,974.87
2022-09-15T09:47:39.031Z,974.87
2022-09-15T09:48:39.022Z,974.87
2022-09-15T09:49:38.998Z,974.86
2022-09-15T09:50:39.460Z,974.87
2022-09-15T09:51:38.969Z,974.85
2022-09-15T09:52:38.970Z,974.85
2022-09-15T09:53:38.962Z,974.88
2022-09-15T09:54:38.947Z,974.92
2022-09-15T09:55:38.937Z,974.87
2022-09-15T09:56:38.958Z,974.90
2022-09-15T09:57:40.871Z,974.86
2022-09-15T09:58:38.911Z,974.88
2022-09-15T09:59:38.894Z,974.86
2022-09-15T10:00:38.893Z,974.86
2022-09-15T10:01:38.954Z,974.89
2022-09-15T10:02:38.903Z,974.88
2022-09-15T10:03:38.854Z,974.89
2022-09-15T10:04:38.902Z,974.91
2022-09-15T10:05:38.833Z,974.89
2022-09-15T10:06:38.833Z,974.94
2022-09-15T10:07:38.812Z,974.93
2022-09-15T10:08:38.830Z,974.89
2022-09-15T10:09:38.784Z,974.91
2022-09-15T10:10:38.781Z,974.97
2022-09-15T10:11:38.765Z,974.96
2022-09-15T10:12:38.762Z,974.93
2022-09-15T10:13:38.754Z,974.91
2022-09-15T10:14:38.773Z,974.92
2022-09-15T10:15:38.735Z,974.93
2022-09-15T10:16:38.790Z,974.91
2022-09-15T10:17:38.707Z,974.95
2022-09-15T10:18:38.699Z,974.93
2022-09-15T10:19:38.688Z,974.93
2022-09-15T10:20:38.707Z,974.90
2022-09-15T10:21:38.670Z,974.93
2022-09-15T10:22:38.658Z,974.94
2022-09-15T10:23:38.647Z,974.93
2022-09-15T10:24:38.637Z,974.92
2022-09-15T10:26:39.639Z,974.95
2022-09-15T10:27:38.608Z,974.89
2022-09-15T10:28:38.599Z,974.84
2022-09-15T10:29:38.579Z,974.87
2022-09-15T10:30:38.581Z,974.88
2022-09-15T10:31:38.594Z,974.95
2022-09-15T10:32:38.588Z,974.87
2022-09-15T10:33:38.540Z,974.95
2022-09-15T10:34:38.538Z,974.91
2022-09-15T10:35:38.527Z,974.90
2022-09-15T10:36:38.513Z,974.88
2022-09-15T10:37:38.500Z,974.89
2022-09-15T10:38:38.520Z,974.91
2022-09-15T10:39:38.481Z,974.91
2022-09-15T10:40:38.472Z,974.90
2022-09-15T10:41:38.454Z,974.93
2022-09-15T10:42:38.462Z,974.91
2022-09-15T10:43:38.433Z,974.93
2022-09-15T10:44:38.471Z,974.97
2022-09-15T10:45:38.494Z,974.95
2022-09-15T10:46:39.431Z,974.88
2022-09-15T10:47:38.397Z,974.87
2022-09-15T10:48:38.394Z,974.90
2022-09-15T10:49:38.377Z,974.86
2022-09-15T10:50:38.396Z,974.83
2022-09-15T10:51:38.355Z,974.84
2022-09-15T10:52:38.337Z,974.83
2022-09-15T10:53:38.337Z,974.83
2022-09-15T10:54:38.319Z,974.84
2022-09-15T10:55:52.397Z,974.85
2022-09-15T10:56:39.338Z,974.83
2022-09-15T10:57:38.288Z,974.80
2022-09-15T10:58:40.907Z,974.84
2022-09-15T10:59:39.268Z,974.81
2022-09-15T11:00:38.326Z,974.77
2022-09-15T11:01:38.342Z,974.82
2022-09-15T11:02:38.260Z,974.80
2022-09-15T11:03:38.229Z,974.84
2022-09-15T11:04:38.221Z,974.79
2022-09-15T11:05:38.212Z,974.80
2022-09-15T11:06:38.219Z,974.79
2022-09-15T11:07:38.193Z,974.77
2022-09-15T11:08:38.201Z,974.75
2022-09-15T11:09:38.160Z,974.83
2022-09-15T11:10:38.153Z,974.81
2022-09-15T11:11:38.143Z,974.80
2022-09-15T11:12:38.131Z,974.71
2022-09-15T11:13:38.124Z,974.76
2022-09-15T11:14:38.142Z,974.74
2022-09-15T11:15:38.100Z,974.77
2022-09-15T11:16:38.126Z,974.78
2022-09-15T11:17:38.086Z,974.74
2022-09-15T11:18:38.064Z,974.71
2022-09-15T11:19:38.054Z,974.74
2022-09-15T11:20:38.064Z,974.73
2022-09-15T11:21:38.033Z,974.76
2022-09-15T11:22:38.017Z,974.75
2022-09-15T11:23:38.015Z,974.69
2022-09-15T11:24:37.995Z,974.78
2022-09-15T11:25:37.995Z,974.73
2022-09-15T11:26:38.003Z,974.74
2022-09-15T11:27:37.967Z,974.75
2022-09-15T11:28:38.010Z,974.71
2022-09-15T11:29:37.948Z,974.67
2022-09-15T11:30:37.939Z,974.69
2022-09-15T11:31:38.102Z,974.72
2022-09-15T11:32:37.937Z,974.72
2022-09-15T11:33:37.894Z,974.71
2022-09-15T11:34:37.889Z,974.65
2022-09-15T11:35:37.885Z,974.58
2022-09-15T11:36:37.860Z,974.66
2022-09-15T11:37:37.859Z,974.64
2022-09-15T11:38:37.879Z,974.62
2022-09-15T11:39:37.842Z,974.65
2022-09-15T11:40:37.826Z,974.65
2022-09-15T11:41:37.819Z,974.68
2022-09-15T11:42:37.803Z,974.65
2022-09-15T11:43:37.801Z,974.68
2022-09-15T11:44:37.804Z,974.66
2022-09-15T11:45:37.774Z,974.68
2022-09-15T11:46:37.786Z,974.70
2022-09-15T11:47:37.778Z,974.62
2022-09-15T11:48:37.740Z,974.65
2022-09-15T11:49:37.724Z,974.65
2022-09-15T11:50:37.751Z,974.62
2022-09-15T11:51:37.747Z,974.65
2022-09-15T11:52:37.699Z,974.69
2022-09-15T11:53:37.705Z,974.68
2022-09-15T11:54:37.675Z,974.71
2022-09-15T11:55:37.669Z,974.71
2022-09-15T11:56:37.683Z,974.68
2022-09-15T11:57:37.643Z,974.70
2022-09-15T11:58:37.637Z,974.69
2022-09-15T11:59:37.633Z,974.70
2022-09-15T12:00:37.619Z,974.71
2022-09-15T12:01:37.670Z,974.68
2022-09-15T12:02:37.661Z,974.74
2022-09-15T12:03:37.589Z,974.73
2022-09-15T12:04:37.577Z,974.72
2022-09-15T12:05:37.566Z,974.70
2022-09-15T12:06:39.190Z,974.69
2022-09-15T12:07:37.551Z,974.69
2022-09-15T12:08:37.560Z,974.77
2022-09-15T12:09:37.529Z,974.75
2022-09-15T12:10:37.521Z,974.70
2022-09-15T12:11:37.508Z,974.67
2022-09-15T12:12:37.861Z,974.83
2022-09-15T12:13:37.481Z,974.79
2022-09-15T12:14:37.491Z,974.74
2022-09-15T12:15:37.492Z,974.76
2022-09-15T12:16:37.444Z,974.80
2022-09-15T12:17:37.442Z,974.77
2022-09-15T12:18:41.708Z,974.78
2022-09-15T12:19:38.443Z,974.77
2022-09-15T12:20:37.404Z,974.79
2022-09-15T12:21:37.394Z,974.69
2022-09-15T12:22:37.383Z,974.73
2022-09-15T12:23:37.375Z,974.70
2022-09-15T12:24:37.377Z,974.74
2022-09-15T12:25:37.375Z,974.80
2022-09-15T12:26:37.348Z,974.75
2022-09-15T12:27:37.341Z,974.71
2022-09-15T12:28:37.330Z,974.79
2022-09-15T12:29:41.181Z,974.80